sensor_id;sensor_type;location;lat;lon;timestamp;P1;durP1;ratioP1;P2;durP2;ratioP2
31424;SDS011;18054;51.572;7.372;2024-03-23T00:54:57;27.13;;;4.93;;
31424;SDS011;18054;51.572;7.372;2024-03-23T00:59:49;35.13;;;5.85;;
31424;SDS011;18054;51.572;7.372;2024-03-23T01:02:34;32.67;;;5.50;;
31424;SDS011;18054;51.572;7.372;2024-03-23T01:07:26;38.28;;;5.25;;
31424;SDS011;18054;51.572;7.372;2024-03-23T01:09:53;39.05;;;5.40;;
31424;SDS011;18054;51.572;7.372;2024-03-23T01:12:18;37.70;;;5.50;;
31424;SDS011;18054;51.572;7.372;2024-03-23T01:14:45;28.48;;;6.00;;
31424;SDS011;18054;51.572;7.372;2024-03-23T01:17:10;36.00;;;4.93;;
31424;SDS011;18054;51.572;7.372;2024-03-23T01:19:38;29.42;;;4.82;;
31424;SDS011;18054;51.572;7.372;2024-03-23T01:22:04;41.05;;;5.70;;
31424;SDS011;18054;51.572;7.372;2024-03-23T01:24:31;33.90;;;5.35;;
31424;SDS011;18054;51.572;7.372;2024-03-23T01:26:56;50.55;;;5.60;;
31424;SDS011;18054;51.572;7.372;2024-03-23T01:29:23;34.42;;;5.20;;
31424;SDS011;18054;51.572;7.372;2024-03-23T01:31:48;28.08;;;5.53;;
31424;SDS011;18054;51.572;7.372;2024-03-23T01:34:15;19.35;;;4.03;;
31424;SDS011;18054;51.572;7.372;2024-03-23T01:36:42;13.52;;;2.53;;
31424;SDS011;18054;51.572;7.372;2024-03-23T01:41:34;19.20;;;2.80;;
31424;SDS011;18054;51.572;7.372;2024-03-23T01:44:01;14.23;;;2.45;;
31424;SDS011;18054;51.572;7.372;2024-03-23T01:46:30;23.77;;;2.42;;
31424;SDS011;18054;51.572;7.372;2024-03-23T01:48:56;18.83;;;3.08;;
31424;SDS011;18054;51.572;7.372;2024-03-23T01:51:22;20.35;;;3.33;;
31424;SDS011;18054;51.572;7.372;2024-03-23T01:53:50;18.50;;;2.90;;
31424;SDS011;18054;51.572;7.372;2024-03-23T01:56:16;16.85;;;3.05;;
31424;SDS011;18054;51.572;7.372;2024-03-23T01:58:42;16.00;;;3.17;;
31424;SDS011;18054;51.572;7.372;2024-03-23T02:01:08;15.77;;;3.22;;
31424;SDS011;18054;51.572;7.372;2024-03-23T02:03:35;18.77;;;3.77;;
31424;SDS011;18054;51.572;7.372;2024-03-23T02:06:01;16.08;;;3.03;;
31424;SDS011;18054;51.572;7.372;2024-03-23T02:08:27;21.40;;;3.83;;
31424;SDS011;18054;51.572;7.372;2024-03-23T02:10:55;18.75;;;3.90;;
31424;SDS011;18054;51.572;7.372;2024-03-23T02:13:22;23.83;;;3.63;;
31424;SDS011;18054;51.572;7.372;2024-03-23T02:15:47;24.95;;;4.40;;
31424;SDS011;18054;51.572;7.372;2024-03-23T02:18:14;21.67;;;3.80;;
31424;SDS011;18054;51.572;7.372;2024-03-23T02:20:40;26.60;;;3.85;;
31424;SDS011;18054;51.572;7.372;2024-03-23T02:23:13;25.92;;;3.55;;
31424;SDS011;18054;51.572;7.372;2024-03-23T02:25:39;18.42;;;3.67;;
31424;SDS011;18054;51.572;7.372;2024-03-23T02:28:06;31.48;;;4.28;;
31424;SDS011;18054;51.572;7.372;2024-03-23T02:30:31;30.20;;;4.70;;
31424;SDS011;18054;51.572;7.372;2024-03-23T02:32:58;15.13;;;3.15;;
31424;SDS011;18054;51.572;7.372;2024-03-23T02:35:24;19.30;;;3.67;;
31424;SDS011;18054;51.572;7.372;2024-03-23T02:37:50;12.23;;;2.88;;
31424;SDS011;18054;51.572;7.372;2024-03-23T02:40:17;10.35;;;2.67;;
31424;SDS011;18054;51.572;7.372;2024-03-23T02:42:44;19.58;;;3.40;;
31424;SDS011;18054;51.572;7.372;2024-03-23T02:45:09;20.88;;;3.70;;
31424;SDS011;18054;51.572;7.372;2024-03-23T02:47:36;27.98;;;3.85;;
31424;SDS011;18054;51.572;7.372;2024-03-23T02:50:02;18.90;;;3.60;;
31424;SDS011;18054;51.572;7.372;2024-03-23T02:52:29;25.48;;;3.85;;
31424;SDS011;18054;51.572;7.372;2024-03-23T02:54:55;20.00;;;3.97;;
31424;SDS011;18054;51.572;7.372;2024-03-23T02:57:23;23.90;;;3.35;;
31424;SDS011;18054;51.572;7.372;2024-03-23T02:59:48;24.33;;;3.37;;
31424;SDS011;18054;51.572;7.372;2024-03-23T03:02:15;20.45;;;3.35;;
31424;SDS011;18054;51.572;7.372;2024-03-23T03:04:41;20.52;;;3.47;;
31424;SDS011;18054;51.572;7.372;2024-03-23T03:07:07;30.42;;;3.97;;
31424;SDS011;18054;51.572;7.372;2024-03-23T03:09:33;17.75;;;3.47;;
31424;SDS011;18054;51.572;7.372;2024-03-23T03:12:00;19.83;;;3.22;;
31424;SDS011;18054;51.572;7.372;2024-03-23T03:14:28;18.98;;;3.30;;
31424;SDS011;18054;51.572;7.372;2024-03-23T03:16:55;15.48;;;3.22;;
31424;SDS011;18054;51.572;7.372;2024-03-23T03:19:20;27.23;;;3.88;;
31424;SDS011;18054;51.572;7.372;2024-03-23T03:21:47;19.63;;;3.25;;
31424;SDS011;18054;51.572;7.372;2024-03-23T03:24:13;20.92;;;3.22;;
31424;SDS011;18054;51.572;7.372;2024-03-23T03:26:39;14.88;;;2.80;;
31424;SDS011;18054;51.572;7.372;2024-03-23T03:29:05;25.60;;;2.67;;
31424;SDS011;18054;51.572;7.372;2024-03-23T03:31:33;17.08;;;2.85;;
31424;SDS011;18054;51.572;7.372;2024-03-23T03:33:58;27.00;;;3.77;;
31424;SDS011;18054;51.572;7.372;2024-03-23T03:36:25;20.63;;;2.97;;
31424;SDS011;18054;51.572;7.372;2024-03-23T03:38:51;21.85;;;3.40;;
31424;SDS011;18054;51.572;7.372;2024-03-23T03:41:18;19.45;;;3.35;;
31424;SDS011;18054;51.572;7.372;2024-03-23T03:43:43;23.35;;;3.03;;
31424;SDS011;18054;51.572;7.372;2024-03-23T03:46:10;30.30;;;4.75;;
31424;SDS011;18054;51.572;7.372;2024-03-23T03:48:37;25.33;;;4.55;;
31424;SDS011;18054;51.572;7.372;2024-03-23T03:53:29;29.13;;;4.05;;
31424;SDS011;18054;51.572;7.372;2024-03-23T03:55:56;16.50;;;3.88;;
31424;SDS011;18054;51.572;7.372;2024-03-23T03:58:21;25.95;;;4.43;;
31424;SDS011;18054;51.572;7.372;2024-03-23T04:00:48;16.83;;;3.50;;
31424;SDS011;18054;51.572;7.372;2024-03-23T04:03:14;16.75;;;4.03;;
31424;SDS011;18054;51.572;7.372;2024-03-23T04:05:42;24.35;;;4.15;;
31424;SDS011;18054;51.572;7.372;2024-03-23T04:08:07;17.67;;;3.87;;
31424;SDS011;18054;51.572;7.372;2024-03-23T04:10:34;20.23;;;3.72;;
31424;SDS011;18054;51.572;7.372;2024-03-23T04:13:00;23.05;;;3.70;;
31424;SDS011;18054;51.572;7.372;2024-03-23T04:15:26;17.50;;;4.25;;
31424;SDS011;18054;51.572;7.372;2024-03-23T04:17:52;28.60;;;5.78;;
31424;SDS011;18054;51.572;7.372;2024-03-23T04:20:19;25.60;;;4.28;;
31424;SDS011;18054;51.572;7.372;2024-03-23T04:22:46;17.80;;;4.05;;
31424;SDS011;18054;51.572;7.372;2024-03-23T04:27:38;27.27;;;4.20;;
31424;SDS011;18054;51.572;7.372;2024-03-23T04:30:05;23.63;;;3.35;;
31424;SDS011;18054;51.572;7.372;2024-03-23T04:32:35;13.68;;;3.42;;
31424;SDS011;18054;51.572;7.372;2024-03-23T04:35:02;17.67;;;2.97;;
31424;SDS011;18054;51.572;7.372;2024-03-23T04:37:28;22.13;;;3.67;;
31424;SDS011;18054;51.572;7.372;2024-03-23T04:39:56;17.42;;;3.05;;
31424;SDS011;18054;51.572;7.372;2024-03-23T04:44:49;23.38;;;3.67;;
31424;SDS011;18054;51.572;7.372;2024-03-23T04:47:16;20.60;;;5.15;;
31424;SDS011;18054;51.572;7.372;2024-03-23T04:49:43;18.10;;;3.45;;
31424;SDS011;18054;51.572;7.372;2024-03-23T04:52:10;23.75;;;4.03;;
31424;SDS011;18054;51.572;7.372;2024-03-23T04:54:38;27.63;;;4.30;;
31424;SDS011;18054;51.572;7.372;2024-03-23T04:57:07;36.10;;;4.10;;
31424;SDS011;18054;51.572;7.372;2024-03-23T05:01:59;20.50;;;4.15;;
31424;SDS011;18054;51.572;7.372;2024-03-23T05:04:26;21.50;;;3.92;;
31424;SDS011;18054;51.572;7.372;2024-03-23T05:06:51;21.33;;;4.30;;
31424;SDS011;18054;51.572;7.372;2024-03-23T05:09:18;29.67;;;4.13;;
31424;SDS011;18054;51.572;7.372;2024-03-23T05:11:45;21.13;;;4.10;;
31424;SDS011;18054;51.572;7.372;2024-03-23T05:14:13;23.27;;;4.50;;
31424;SDS011;18054;51.572;7.372;2024-03-23T05:16:39;22.08;;;5.43;;
31424;SDS011;18054;51.572;7.372;2024-03-23T05:19:05;25.65;;;7.30;;
31424;SDS011;18054;51.572;7.372;2024-03-23T05:21:31;23.27;;;5.22;;
31424;SDS011;18054;51.572;7.372;2024-03-23T05:23:58;18.95;;;5.88;;
31424;SDS011;18054;51.572;7.372;2024-03-23T05:26:23;27.08;;;6.18;;
31424;SDS011;18054;51.572;7.372;2024-03-23T05:28:50;26.25;;;6.68;;
31424;SDS011;18054;51.572;7.372;2024-03-23T05:31:23;30.10;;;6.25;;
31424;SDS011;18054;51.572;7.372;2024-03-23T05:33:50;29.92;;;5.88;;
31424;SDS011;18054;51.572;7.372;2024-03-23T05:36:16;26.58;;;5.25;;
31424;SDS011;18054;51.572;7.372;2024-03-23T05:38:42;25.85;;;5.28;;
31424;SDS011;18054;51.572;7.372;2024-03-23T05:41:08;23.83;;;6.47;;
31424;SDS011;18054;51.572;7.372;2024-03-23T05:43:34;27.63;;;5.80;;
31424;SDS011;18054;51.572;7.372;2024-03-23T05:46:00;31.00;;;6.40;;
31424;SDS011;18054;51.572;7.372;2024-03-23T05:48:29;30.55;;;6.55;;
31424;SDS011;18054;51.572;7.372;2024-03-23T05:50:55;26.77;;;7.30;;
31424;SDS011;18054;51.572;7.372;2024-03-23T05:53:22;26.98;;;6.68;;
31424;SDS011;18054;51.572;7.372;2024-03-23T05:55:48;17.10;;;5.55;;
31424;SDS011;18054;51.572;7.372;2024-03-23T05:58:15;29.98;;;7.22;;
31424;SDS011;18054;51.572;7.372;2024-03-23T06:00:41;29.17;;;7.65;;
31424;SDS011;18054;51.572;7.372;2024-03-23T06:03:08;29.13;;;7.78;;
31424;SDS011;18054;51.572;7.372;2024-03-23T06:05:35;31.63;;;8.82;;
31424;SDS011;18054;51.572;7.372;2024-03-23T06:10:27;39.28;;;8.20;;
31424;SDS011;18054;51.572;7.372;2024-03-23T06:12:54;19.77;;;7.37;;
31424;SDS011;18054;51.572;7.372;2024-03-23T06:15:19;26.25;;;7.07;;
31424;SDS011;18054;51.572;7.372;2024-03-23T06:17:47;27.88;;;7.82;;
31424;SDS011;18054;51.572;7.372;2024-03-23T06:20:13;29.58;;;8.38;;
31424;SDS011;18054;51.572;7.372;2024-03-23T06:22:41;35.72;;;9.75;;
31424;SDS011;18054;51.572;7.372;2024-03-23T06:25:07;40.72;;;10.18;;
31424;SDS011;18054;51.572;7.372;2024-03-23T06:27:34;36.30;;;10.67;;
31424;SDS011;18054;51.572;7.372;2024-03-23T06:29:59;27.52;;;9.75;;
31424;SDS011;18054;51.572;7.372;2024-03-23T06:32:27;28.10;;;10.10;;
31424;SDS011;18054;51.572;7.372;2024-03-23T06:34:52;33.70;;;12.05;;
31424;SDS011;18054;51.572;7.372;2024-03-23T06:37:19;31.33;;;11.60;;
31424;SDS011;18054;51.572;7.372;2024-03-23T06:39:46;37.50;;;10.43;;
31424;SDS011;18054;51.572;7.372;2024-03-23T06:42:13;35.03;;;12.93;;
31424;SDS011;18054;51.572;7.372;2024-03-23T06:44:39;54.65;;;18.27;;
31424;SDS011;18054;51.572;7.372;2024-03-23T06:47:05;34.58;;;14.40;;
31424;SDS011;18054;51.572;7.372;2024-03-23T06:49:31;32.58;;;15.45;;
31424;SDS011;18054;51.572;7.372;2024-03-23T06:51:58;54.20;;;15.98;;
31424;SDS011;18054;51.572;7.372;2024-03-23T06:54:24;41.45;;;16.27;;
31424;SDS011;18054;51.572;7.372;2024-03-23T06:56:52;44.17;;;16.65;;
31424;SDS011;18054;51.572;7.372;2024-03-23T06:59:17;51.30;;;14.60;;
31424;SDS011;18054;51.572;7.372;2024-03-23T07:01:44;39.72;;;16.35;;
31424;SDS011;18054;51.572;7.372;2024-03-23T07:04:09;44.70;;;16.90;;
31424;SDS011;18054;51.572;7.372;2024-03-23T07:06:41;38.30;;;16.08;;
31424;SDS011;18054;51.572;7.372;2024-03-23T07:09:07;39.50;;;16.30;;
31424;SDS011;18054;51.572;7.372;2024-03-23T07:11:34;38.53;;;16.80;;
31424;SDS011;18054;51.572;7.372;2024-03-23T07:14:01;48.65;;;18.10;;
31424;SDS011;18054;51.572;7.372;2024-03-23T07:16:28;42.92;;;16.23;;
31424;SDS011;18054;51.572;7.372;2024-03-23T07:18:53;40.65;;;15.95;;
31424;SDS011;18054;51.572;7.372;2024-03-23T07:21:20;40.83;;;15.68;;
31424;SDS011;18054;51.572;7.372;2024-03-23T07:23:46;42.47;;;16.25;;
31424;SDS011;18054;51.572;7.372;2024-03-23T07:26:13;40.97;;;15.10;;
31424;SDS011;18054;51.572;7.372;2024-03-23T07:28:38;30.35;;;13.82;;
31424;SDS011;18054;51.572;7.372;2024-03-23T07:31:10;37.13;;;15.18;;
31424;SDS011;18054;51.572;7.372;2024-03-23T07:33:42;43.25;;;14.43;;
31424;SDS011;18054;51.572;7.372;2024-03-23T07:36:09;33.67;;;13.73;;
31424;SDS011;18054;51.572;7.372;2024-03-23T07:38:34;31.65;;;14.73;;
31424;SDS011;18054;51.572;7.372;2024-03-23T07:41:04;30.05;;;13.15;;
31424;SDS011;18054;51.572;7.372;2024-03-23T07:43:30;33.03;;;13.48;;
31424;SDS011;18054;51.572;7.372;2024-03-23T07:45:57;40.72;;;14.10;;
31424;SDS011;18054;51.572;7.372;2024-03-23T07:48:24;35.70;;;11.93;;
31424;SDS011;18054;51.572;7.372;2024-03-23T07:51:00;27.90;;;11.45;;
31424;SDS011;18054;51.572;7.372;2024-03-23T07:53:26;34.75;;;11.50;;
31424;SDS011;18054;51.572;7.372;2024-03-23T07:55:56;33.03;;;9.85;;
31424;SDS011;18054;51.572;7.372;2024-03-23T07:58:22;35.83;;;11.05;;
31424;SDS011;18054;51.572;7.372;2024-03-23T08:00:49;30.58;;;9.82;;
31424;SDS011;18054;51.572;7.372;2024-03-23T08:03:15;37.25;;;10.73;;
31424;SDS011;18054;51.572;7.372;2024-03-23T08:05:43;31.02;;;11.00;;
31424;SDS011;18054;51.572;7.372;2024-03-23T08:08:08;34.97;;;11.90;;
31424;SDS011;18054;51.572;7.372;2024-03-23T08:10:36;31.98;;;8.98;;
31424;SDS011;18054;51.572;7.372;2024-03-23T08:13:01;33.17;;;8.82;;
31424;SDS011;18054;51.572;7.372;2024-03-23T08:15:29;33.10;;;8.90;;
31424;SDS011;18054;51.572;7.372;2024-03-23T08:17:55;37.17;;;9.70;;
31424;SDS011;18054;51.572;7.372;2024-03-23T08:20:21;28.23;;;7.78;;
31424;SDS011;18054;51.572;7.372;2024-03-23T08:22:48;31.42;;;8.15;;
31424;SDS011;18054;51.572;7.372;2024-03-23T08:27:42;25.38;;;7.88;;
31424;SDS011;18054;51.572;7.372;2024-03-23T08:30:10;22.05;;;7.93;;
31424;SDS011;18054;51.572;7.372;2024-03-23T08:32:36;29.70;;;7.43;;
31424;SDS011;18054;51.572;7.372;2024-03-23T08:35:03;23.50;;;6.22;;
31424;SDS011;18054;51.572;7.372;2024-03-23T08:37:29;39.55;;;7.03;;
31424;SDS011;18054;51.572;7.372;2024-03-23T08:39:57;29.83;;;6.93;;
31424;SDS011;18054;51.572;7.372;2024-03-23T08:42:22;27.27;;;6.57;;
31424;SDS011;18054;51.572;7.372;2024-03-23T08:44:49;24.35;;;6.70;;
31424;SDS011;18054;51.572;7.372;2024-03-23T08:47:14;17.58;;;5.45;;
31424;SDS011;18054;51.572;7.372;2024-03-23T08:49:41;27.45;;;7.28;;
31424;SDS011;18054;51.572;7.372;2024-03-23T08:52:07;14.27;;;5.50;;
31424;SDS011;18054;51.572;7.372;2024-03-23T08:54:33;15.57;;;4.50;;
31424;SDS011;18054;51.572;7.372;2024-03-23T08:57:01;25.77;;;6.18;;
31424;SDS011;18054;51.572;7.372;2024-03-23T09:01:53;23.20;;;5.30;;
31424;SDS011;18054;51.572;7.372;2024-03-23T09:04:19;21.92;;;5.88;;
31424;SDS011;18054;51.572;7.372;2024-03-23T09:06:45;23.10;;;4.88;;
31424;SDS011;18054;51.572;7.372;2024-03-23T09:09:11;23.88;;;5.63;;
31424;SDS011;18054;51.572;7.372;2024-03-23T09:11:37;23.00;;;4.82;;
31424;SDS011;18054;51.572;7.372;2024-03-23T09:14:05;19.15;;;5.03;;
31424;SDS011;18054;51.572;7.372;2024-03-23T09:16:30;25.17;;;6.35;;
31424;SDS011;18054;51.572;7.372;2024-03-23T09:18:57;27.60;;;5.32;;
31424;SDS011;18054;51.572;7.372;2024-03-23T09:21:23;13.65;;;3.58;;
31424;SDS011;18054;51.572;7.372;2024-03-23T09:23:52;26.00;;;6.30;;
31424;SDS011;18054;51.572;7.372;2024-03-23T09:26:18;24.35;;;5.53;;
31424;SDS011;18054;51.572;7.372;2024-03-23T09:28:44;21.30;;;4.07;;
31424;SDS011;18054;51.572;7.372;2024-03-23T09:31:11;18.73;;;4.40;;
31424;SDS011;18054;51.572;7.372;2024-03-23T09:33:40;18.17;;;5.40;;
31424;SDS011;18054;51.572;7.372;2024-03-23T09:36:06;17.13;;;4.60;;
31424;SDS011;18054;51.572;7.372;2024-03-23T09:38:33;17.60;;;4.65;;
31424;SDS011;18054;51.572;7.372;2024-03-23T09:40:59;15.88;;;5.28;;
31424;SDS011;18054;51.572;7.372;2024-03-23T09:43:26;20.40;;;5.78;;
31424;SDS011;18054;51.572;7.372;2024-03-23T09:45:51;18.70;;;6.03;;
31424;SDS011;18054;51.572;7.372;2024-03-23T09:48:20;16.92;;;4.90;;
31424;SDS011;18054;51.572;7.372;2024-03-23T09:50:45;11.63;;;4.70;;
31424;SDS011;18054;51.572;7.372;2024-03-23T09:53:14;20.02;;;3.42;;
31424;SDS011;18054;51.572;7.372;2024-03-23T09:55:40;15.15;;;3.15;;
31424;SDS011;18054;51.572;7.372;2024-03-23T09:58:08;14.52;;;3.42;;
31424;SDS011;18054;51.572;7.372;2024-03-23T10:00:34;22.52;;;3.78;;
31424;SDS011;18054;51.572;7.372;2024-03-23T10:03:01;24.02;;;4.18;;
31424;SDS011;18054;51.572;7.372;2024-03-23T10:05:28;16.02;;;3.30;;
31424;SDS011;18054;51.572;7.372;2024-03-23T10:07:56;20.00;;;4.05;;
31424;SDS011;18054;51.572;7.372;2024-03-23T10:10:22;12.23;;;3.05;;
31424;SDS011;18054;51.572;7.372;2024-03-23T10:12:51;16.70;;;4.97;;
31424;SDS011;18054;51.572;7.372;2024-03-23T10:15:18;16.77;;;4.32;;
31424;SDS011;18054;51.572;7.372;2024-03-23T10:20:10;9.70;;;3.15;;
31424;SDS011;18054;51.572;7.372;2024-03-23T10:22:38;9.35;;;2.60;;
31424;SDS011;18054;51.572;7.372;2024-03-23T10:25:07;12.73;;;2.63;;
31424;SDS011;18054;51.572;7.372;2024-03-23T10:27:34;14.65;;;2.28;;
31424;SDS011;18054;51.572;7.372;2024-03-23T10:30:08;9.20;;;2.08;;
31424;SDS011;18054;51.572;7.372;2024-03-23T10:32:35;13.55;;;2.30;;
31424;SDS011;18054;51.572;7.372;2024-03-23T10:35:16;12.43;;;2.95;;
31424;SDS011;18054;51.572;7.372;2024-03-23T10:37:46;11.48;;;2.92;;
31424;SDS011;18054;51.572;7.372;2024-03-23T10:40:12;14.15;;;3.03;;
31424;SDS011;18054;51.572;7.372;2024-03-23T10:42:39;18.48;;;4.03;;
31424;SDS011;18054;51.572;7.372;2024-03-23T10:45:05;19.02;;;3.03;;
31424;SDS011;18054;51.572;7.372;2024-03-23T10:47:33;11.13;;;2.65;;
31424;SDS011;18054;51.572;7.372;2024-03-23T10:49:59;9.57;;;2.38;;
31424;SDS011;18054;51.572;7.372;2024-03-23T10:52:26;13.60;;;2.65;;
31424;SDS011;18054;51.572;7.372;2024-03-23T10:54:53;16.42;;;2.65;;
31424;SDS011;18054;51.572;7.372;2024-03-23T10:59:45;9.25;;;1.27;;
31424;SDS011;18054;51.572;7.372;2024-03-23T11:02:18;13.13;;;2.22;;
31424;SDS011;18054;51.572;7.372;2024-03-23T11:04:45;10.07;;;2.58;;
31424;SDS011;18054;51.572;7.372;2024-03-23T11:07:29;13.88;;;2.92;;
31424;SDS011;18054;51.572;7.372;2024-03-23T11:09:57;12.60;;;2.15;;
31424;SDS011;18054;51.572;7.372;2024-03-23T11:12:27;9.23;;;3.17;;
31424;SDS011;18054;51.572;7.372;2024-03-23T11:14:52;15.75;;;2.58;;
31424;SDS011;18054;51.572;7.372;2024-03-23T11:17:20;14.75;;;2.83;;
31424;SDS011;18054;51.572;7.372;2024-03-23T11:19:52;11.52;;;3.42;;
31424;SDS011;18054;51.572;7.372;2024-03-23T11:25:01;13.73;;;2.53;;
31424;SDS011;18054;51.572;7.372;2024-03-23T11:27:28;6.47;;;2.15;;
31424;SDS011;18054;51.572;7.372;2024-03-23T11:29:53;8.15;;;2.22;;
31424;SDS011;18054;51.572;7.372;2024-03-23T11:32:20;9.85;;;2.30;;
31424;SDS011;18054;51.572;7.372;2024-03-23T11:34:46;11.30;;;2.00;;
31424;SDS011;18054;51.572;7.372;2024-03-23T11:37:13;16.63;;;1.98;;
31424;SDS011;18054;51.572;7.372;2024-03-23T11:39:38;11.93;;;1.88;;
31424;SDS011;18054;51.572;7.372;2024-03-23T11:42:07;18.35;;;1.50;;
31424;SDS011;18054;51.572;7.372;2024-03-23T11:44:32;10.97;;;2.07;;
31424;SDS011;18054;51.572;7.372;2024-03-23T11:47:06;9.07;;;2.40;;
31424;SDS011;18054;51.572;7.372;2024-03-23T11:49:32;12.27;;;2.50;;
31424;SDS011;18054;51.572;7.372;2024-03-23T11:51:59;12.93;;;2.63;;
31424;SDS011;18054;51.572;7.372;2024-03-23T11:54:26;11.98;;;2.85;;
31424;SDS011;18054;51.572;7.372;2024-03-23T11:56:56;8.57;;;2.33;;
31424;SDS011;18054;51.572;7.372;2024-03-23T11:59:33;3.65;;;1.58;;
31424;SDS011;18054;51.572;7.372;2024-03-23T12:02:00;7.82;;;1.75;;
31424;SDS011;18054;51.572;7.372;2024-03-23T12:04:26;8.25;;;1.70;;
31424;SDS011;18054;51.572;7.372;2024-03-23T12:09:33;9.52;;;2.10;;
31424;SDS011;18054;51.572;7.372;2024-03-23T12:12:04;9.23;;;2.50;;
31424;SDS011;18054;51.572;7.372;2024-03-23T12:14:30;11.18;;;3.40;;
31424;SDS011;18054;51.572;7.372;2024-03-23T12:17:08;10.57;;;2.00;;
31424;SDS011;18054;51.572;7.372;2024-03-23T12:19:33;14.65;;;2.30;;
31424;SDS011;18054;51.572;7.372;2024-03-23T12:22:00;7.55;;;2.55;;
31424;SDS011;18054;51.572;7.372;2024-03-23T12:24:26;11.02;;;2.55;;
31424;SDS011;18054;51.572;7.372;2024-03-23T12:26:52;8.40;;;2.60;;
31424;SDS011;18054;51.572;7.372;2024-03-23T12:29:18;9.45;;;2.50;;
31424;SDS011;18054;51.572;7.372;2024-03-23T12:31:45;7.77;;;2.83;;
31424;SDS011;18054;51.572;7.372;2024-03-23T12:34:12;10.80;;;3.25;;
31424;SDS011;18054;51.572;7.372;2024-03-23T12:39:04;6.18;;;2.28;;
31424;SDS011;18054;51.572;7.372;2024-03-23T12:41:31;10.65;;;3.00;;
31424;SDS011;18054;51.572;7.372;2024-03-23T12:43:56;10.45;;;3.03;;
31424;SDS011;18054;51.572;7.372;2024-03-23T12:46:23;7.65;;;2.20;;
31424;SDS011;18054;51.572;7.372;2024-03-23T12:48:48;4.88;;;2.00;;
31424;SDS011;18054;51.572;7.372;2024-03-23T12:51:20;8.13;;;2.13;;
31424;SDS011;18054;51.572;7.372;2024-03-23T12:53:45;16.37;;;2.50;;
31424;SDS011;18054;51.572;7.372;2024-03-23T12:56:12;10.60;;;2.00;;
31424;SDS011;18054;51.572;7.372;2024-03-23T12:58:37;6.88;;;1.67;;
31424;SDS011;18054;51.572;7.372;2024-03-23T13:01:04;9.65;;;2.03;;
31424;SDS011;18054;51.572;7.372;2024-03-23T13:03:31;6.88;;;1.50;;
31424;SDS011;18054;51.572;7.372;2024-03-23T13:05:58;8.63;;;1.60;;
31424;SDS011;18054;51.572;7.372;2024-03-23T13:08:25;10.57;;;2.30;;
31424;SDS011;18054;51.572;7.372;2024-03-23T13:10:51;10.38;;;2.10;;
31424;SDS011;18054;51.572;7.372;2024-03-23T13:13:17;10.75;;;2.53;;
31424;SDS011;18054;51.572;7.372;2024-03-23T13:15:49;6.00;;;1.48;;
31424;SDS011;18054;51.572;7.372;2024-03-23T13:18:15;7.85;;;1.67;;
31424;SDS011;18054;51.572;7.372;2024-03-23T13:20:41;9.82;;;1.92;;
31424;SDS011;18054;51.572;7.372;2024-03-23T13:23:07;4.78;;;1.60;;
31424;SDS011;18054;51.572;7.372;2024-03-23T13:25:35;13.93;;;2.50;;
31424;SDS011;18054;51.572;7.372;2024-03-23T13:28:01;4.32;;;1.73;;
31424;SDS011;18054;51.572;7.372;2024-03-23T13:30:28;8.20;;;1.80;;
31424;SDS011;18054;51.572;7.372;2024-03-23T13:32:53;5.43;;;1.85;;
31424;SDS011;18054;51.572;7.372;2024-03-23T13:35:21;6.47;;;1.75;;
31424;SDS011;18054;51.572;7.372;2024-03-23T13:37:46;4.38;;;1.63;;
31424;SDS011;18054;51.572;7.372;2024-03-23T13:40:13;8.57;;;1.67;;
31424;SDS011;18054;51.572;7.372;2024-03-23T13:42:40;10.73;;;3.33;;
31424;SDS011;18054;51.572;7.372;2024-03-23T13:47:32;5.45;;;1.85;;
31424;SDS011;18054;51.572;7.372;2024-03-23T13:49:59;8.43;;;1.63;;
31424;SDS011;18054;51.572;7.372;2024-03-23T13:52:25;8.63;;;1.88;;
31424;SDS011;18054;51.572;7.372;2024-03-23T13:54:51;4.97;;;1.40;;
31424;SDS011;18054;51.572;7.372;2024-03-23T13:57:17;6.97;;;1.35;;
31424;SDS011;18054;51.572;7.372;2024-03-23T13:59:47;6.30;;;1.50;;
31424;SDS011;18054;51.572;7.372;2024-03-23T14:02:14;5.30;;;1.58;;
31424;SDS011;18054;51.572;7.372;2024-03-23T14:04:40;4.72;;;1.30;;
31424;SDS011;18054;51.572;7.372;2024-03-23T14:07:06;6.10;;;1.10;;
31424;SDS011;18054;51.572;7.372;2024-03-23T14:12:00;7.18;;;1.02;;
31424;SDS011;18054;51.572;7.372;2024-03-23T14:14:27;5.53;;;1.55;;
31424;SDS011;18054;51.572;7.372;2024-03-23T14:16:54;7.18;;;1.73;;
31424;SDS011;18054;51.572;7.372;2024-03-23T14:21:46;5.28;;;1.65;;
31424;SDS011;18054;51.572;7.372;2024-03-23T14:24:12;9.20;;;1.85;;
31424;SDS011;18054;51.572;7.372;2024-03-23T14:26:38;10.18;;;2.60;;
31424;SDS011;18054;51.572;7.372;2024-03-23T14:29:06;7.63;;;1.80;;
31424;SDS011;18054;51.572;7.372;2024-03-23T14:31:33;8.32;;;2.03;;
31424;SDS011;18054;51.572;7.372;2024-03-23T14:34:01;8.68;;;2.30;;
31424;SDS011;18054;51.572;7.372;2024-03-23T14:36:26;4.23;;;1.70;;
31424;SDS011;18054;51.572;7.372;2024-03-23T14:38:53;9.18;;;1.92;;
31424;SDS011;18054;51.572;7.372;2024-03-23T14:41:18;7.47;;;2.25;;
31424;SDS011;18054;51.572;7.372;2024-03-23T14:43:45;9.82;;;2.28;;
31424;SDS011;18054;51.572;7.372;2024-03-23T14:46:13;7.53;;;1.80;;
31424;SDS011;18054;51.572;7.372;2024-03-23T14:48:41;10.77;;;2.28;;
31424;SDS011;18054;51.572;7.372;2024-03-23T14:51:09;9.87;;;2.30;;
31424;SDS011;18054;51.572;7.372;2024-03-23T14:53:38;8.68;;;2.28;;
31424;SDS011;18054;51.572;7.372;2024-03-23T14:56:05;9.05;;;2.28;;
31424;SDS011;18054;51.572;7.372;2024-03-23T14:58:32;12.77;;;1.73;;
31424;SDS011;18054;51.572;7.372;2024-03-23T15:01:00;12.35;;;3.47;;
31424;SDS011;18054;51.572;7.372;2024-03-23T15:03:27;8.15;;;1.65;;
31424;SDS011;18054;51.572;7.372;2024-03-23T15:05:53;8.50;;;1.58;;
31424;SDS011;18054;51.572;7.372;2024-03-23T15:08:21;9.75;;;2.20;;
31424;SDS011;18054;51.572;7.372;2024-03-23T15:10:47;9.50;;;2.25;;
31424;SDS011;18054;51.572;7.372;2024-03-23T15:13:14;12.32;;;1.67;;
31424;SDS011;18054;51.572;7.372;2024-03-23T15:15:40;5.03;;;1.08;;
31424;SDS011;18054;51.572;7.372;2024-03-23T15:18:09;5.78;;;1.45;;
31424;SDS011;18054;51.572;7.372;2024-03-23T15:20:34;7.40;;;1.65;;
31424;SDS011;18054;51.572;7.372;2024-03-23T15:23:02;7.57;;;1.43;;
31424;SDS011;18054;51.572;7.372;2024-03-23T15:25:29;7.53;;;1.27;;
31424;SDS011;18054;51.572;7.372;2024-03-23T15:27:56;11.65;;;1.80;;
31424;SDS011;18054;51.572;7.372;2024-03-23T15:30:23;6.45;;;1.50;;
31424;SDS011;18054;51.572;7.372;2024-03-23T15:32:49;8.63;;;1.45;;
31424;SDS011;18054;51.572;7.372;2024-03-23T15:35:15;8.38;;;1.30;;
31424;SDS011;18054;51.572;7.372;2024-03-23T15:37:41;6.00;;;1.33;;
31424;SDS011;18054;51.572;7.372;2024-03-23T15:40:08;7.55;;;1.60;;
31424;SDS011;18054;51.572;7.372;2024-03-23T15:42:38;7.03;;;1.60;;
31424;SDS011;18054;51.572;7.372;2024-03-23T15:45:05;4.83;;;1.57;;
31424;SDS011;18054;51.572;7.372;2024-03-23T15:47:32;5.63;;;1.30;;
31424;SDS011;18054;51.572;7.372;2024-03-23T15:49:58;6.95;;;1.17;;
31424;SDS011;18054;51.572;7.372;2024-03-23T15:52:24;8.43;;;1.60;;
31424;SDS011;18054;51.572;7.372;2024-03-23T15:54:50;12.57;;;1.90;;
31424;SDS011;18054;51.572;7.372;2024-03-23T15:57:17;5.70;;;1.10;;
31424;SDS011;18054;51.572;7.372;2024-03-23T15:59:44;15.25;;;2.05;;
31424;SDS011;18054;51.572;7.372;2024-03-23T16:04:36;5.35;;;1.50;;
31424;SDS011;18054;51.572;7.372;2024-03-23T16:07:03;8.10;;;2.30;;
31424;SDS011;18054;51.572;7.372;2024-03-23T16:09:28;10.38;;;2.25;;
31424;SDS011;18054;51.572;7.372;2024-03-23T16:11:55;8.60;;;2.35;;
31424;SDS011;18054;51.572;7.372;2024-03-23T16:14:20;6.78;;;2.05;;